createdAt,value
2022-10-08T00:01:26.830Z,15.41
2022-10-08T00:03:57.030Z,15.36
2022-10-08T00:06:35.744Z,15.37
2022-10-08T00:09:08.551Z,15.33
2022-10-08T00:11:40.094Z,15.35
2022-10-08T00:14:09.333Z,15.34
2022-10-08T00:16:41.663Z,15.34
2022-10-08T00:19:15.751Z,15.31
2022-10-08T00:21:45.204Z,15.27
2022-10-08T00:24:18.283Z,15.22
2022-10-08T00:26:46.394Z,15.16
2022-10-08T00:29:17.702Z,15.10
2022-10-08T00:31:48.551Z,15.07
2022-10-08T00:34:23.807Z,15.04
2022-10-08T00:36:53.971Z,15.03
2022-10-08T00:39:24.715Z,15.05
2022-10-08T00:41:55.172Z,15.05
2022-10-08T00:44:53.708Z,15.01
2022-10-08T00:47:32.736Z,15.00
2022-10-08T00:50:09.448Z,15.00
2022-10-08T00:52:48.316Z,15.01
2022-10-08T00:55:20.680Z,15.00
2022-10-08T00:57:48.852Z,14.98
2022-10-08T01:00:22.120Z,14.94
2022-10-08T01:02:49.971Z,14.95
2022-10-08T01:05:28.311Z,14.94
2022-10-08T01:08:12.966Z,14.91
2022-10-08T01:11:33.729Z,14.81
2022-10-08T01:14:41.910Z,14.76
2022-10-08T01:18:07.704Z,14.68
2022-10-08T01:21:02.500Z,14.62
2022-10-08T01:24:03.650Z,14.52
2022-10-08T01:27:01.370Z,14.48
2022-10-08T01:29:42.190Z,14.47
2022-10-08T01:32:20.259Z,14.46
2022-10-08T01:34:57.966Z,14.51
2022-10-08T01:37:36.607Z,14.52
2022-10-08T01:40:14.344Z,14.52
2022-10-08T01:42:42.185Z,14.51
2022-10-08T01:45:19.821Z,14.51
2022-10-08T01:47:49.591Z,14.55
2022-10-08T01:50:28.257Z,14.45
2022-10-08T01:53:02.237Z,14.44
2022-10-08T01:55:37.433Z,14.43
2022-10-08T01:58:15.112Z,14.42
2022-10-08T02:00:43.222Z,14.43
2022-10-08T02:03:14.024Z,14.36
2022-10-08T02:05:50.534Z,14.32
2022-10-08T02:08:18.836Z,14.34
2022-10-08T02:10:46.056Z,14.32
2022-10-08T02:13:13.649Z,14.29
2022-10-08T02:15:57.386Z,14.29
2022-10-08T02:19:04.625Z,14.24
2022-10-08T02:21:34.367Z,14.25
2022-10-08T02:24:26.889Z,14.24
2022-10-08T02:26:59.206Z,14.27
2022-10-08T02:30:14.713Z,14.26
2022-10-08T02:33:04.412Z,14.24
2022-10-08T02:35:58.896Z,14.19
2022-10-08T02:38:39.317Z,14.16
2022-10-08T02:41:11.228Z,14.14
2022-10-08T02:43:49.690Z,14.12
2022-10-08T02:46:24.281Z,14.11
2022-10-08T02:49:13.560Z,14.08
2022-10-08T02:51:49.533Z,14.05
2022-10-08T02:54:21.556Z,14.04
2022-10-08T02:57:35.526Z,13.99
2022-10-08T03:00:04.284Z,14.01
2022-10-08T03:03:08.258Z,13.93
2022-10-08T03:05:39.893Z,13.93
2022-10-08T03:08:12.734Z,13.90
2022-10-08T03:10:43.726Z,13.88
2022-10-08T03:13:13.058Z,13.95
2022-10-08T03:15:42.661Z,13.83
2022-10-08T03:18:12.564Z,13.75
2022-10-08T03:20:45.614Z,13.71
2022-10-08T03:23:17.561Z,13.71
2022-10-08T03:25:45.554Z,13.71
2022-10-08T03:28:13.001Z,13.74
2022-10-08T03:30:40.501Z,13.72
2022-10-08T03:33:07.774Z,13.68
2022-10-08T03:35:35.336Z,13.70
2022-10-08T03:38:02.846Z,13.69
2022-10-08T03:40:30.154Z,13.67
2022-10-08T03:42:57.310Z,13.68
2022-10-08T03:45:24.710Z,13.64
2022-10-08T03:47:52.635Z,13.59
2022-10-08T03:50:22.942Z,13.52
2022-10-08T03:52:50.526Z,13.52
2022-10-08T03:55:19.259Z,13.51
2022-10-08T03:57:46.446Z,13.49
2022-10-08T04:00:14.223Z,13.51
2022-10-08T04:02:41.509Z,13.44
2022-10-08T04:05:09.203Z,13.39
2022-10-08T04:07:36.587Z,13.35
2022-10-08T04:10:04.424Z,13.35
2022-10-08T04:12:31.585Z,13.37
2022-10-08T04:14:58.976Z,13.35
2022-10-08T04:17:26.136Z,13.35
2022-10-08T04:19:53.413Z,13.32
2022-10-08T04:22:20.897Z,13.28
2022-10-08T04:24:48.085Z,13.30
2022-10-08T04:27:15.356Z,13.22
2022-10-08T04:29:42.788Z,13.25
2022-10-08T04:32:09.967Z,13.15
2022-10-08T04:34:37.128Z,13.11
2022-10-08T04:37:04.574Z,13.12
2022-10-08T04:39:31.733Z,13.11
2022-10-08T04:41:59.084Z,13.12
2022-10-08T04:44:26.572Z,13.07
2022-10-08T04:46:53.852Z,13.04
2022-10-08T04:49:21.020Z,13.04
2022-10-08T04:51:48.562Z,13.01
2022-10-08T04:54:16.178Z,13.02
2022-10-08T04:56:43.462Z,13.06
2022-10-08T04:59:10.863Z,12.99
2022-10-08T05:01:38.371Z,13.08
2022-10-08T05:04:05.630Z,13.06
2022-10-08T05:06:33.313Z,13.06
2022-10-08T05:09:05.287Z,13.05
2022-10-08T05:11:34.181Z,13.06
2022-10-08T05:14:02.329Z,13.08
2022-10-08T05:16:29.736Z,13.09
2022-10-08T05:18:57.848Z,13.10
2022-10-08T05:21:29.882Z,13.02
2022-10-08T05:24:03.512Z,13.02
2022-10-08T05:26:56.989Z,13.07
2022-10-08T05:29:22.576Z,13.02
2022-10-08T05:31:49.982Z,13.07
2022-10-08T05:34:17.288Z,13.08
2022-10-08T05:36:44.667Z,13.08
2022-10-08T05:39:12.153Z,13.14
2022-10-08T05:41:39.476Z,13.04
2022-10-08T05:44:09.798Z,13.14
2022-10-08T05:46:39.264Z,13.11
2022-10-08T05:49:08.844Z,13.08
2022-10-08T05:51:36.533Z,13.16
2022-10-08T05:54:04.231Z,13.24
2022-10-08T05:56:31.838Z,13.31
2022-10-08T05:58:59.386Z,13.36
2022-10-08T06:01:31.556Z,13.47
2022-10-08T06:04:09.071Z,13.59
2022-10-08T06:06:39.786Z,13.75
2022-10-08T06:09:09.049Z,13.87
2022-10-08T06:11:37.848Z,13.98
2022-10-08T06:14:09.808Z,14.10
2022-10-08T06:16:37.757Z,14.15
2022-10-08T06:19:07.225Z,14.30
2022-10-08T06:21:35.784Z,14.38
2022-10-08T06:24:07.225Z,14.48
2022-10-08T06:26:38.502Z,14.56
2022-10-08T06:29:10.439Z,14.62
2022-10-08T06:31:37.956Z,14.66
2022-10-08T06:34:05.488Z,14.78
2022-10-08T06:36:35.136Z,14.87
2022-10-08T06:39:10.752Z,15.05
2022-10-08T06:41:38.547Z,15.12
2022-10-08T06:44:10.840Z,15.20
2022-10-08T06:46:38.408Z,15.26
2022-10-08T06:49:06.393Z,15.35
2022-10-08T06:51:34.682Z,15.36
2022-10-08T06:54:07.343Z,15.36
2022-10-08T06:56:37.768Z,15.54
2022-10-08T06:59:07.232Z,15.87
2022-10-08T07:01:35.926Z,16.28
2022-10-08T07:04:05.779Z,16.65
2022-10-08T07:06:33.070Z,16.94
2022-10-08T07:09:02.261Z,16.91
2022-10-08T07:11:32.451Z,17.13
2022-10-08T07:13:59.742Z,17.16
2022-10-08T07:16:28.741Z,17.19
2022-10-08T07:18:58.662Z,17.32
2022-10-08T07:21:28.087Z,17.47
2022-10-08T07:23:56.290Z,17.73
2022-10-08T07:26:27.450Z,18.02
2022-10-08T07:29:13.854Z,18.35
2022-10-08T07:31:41.561Z,21.38
2022-10-08T07:34:12.830Z,24.64
2022-10-08T07:36:41.245Z,26.77
2022-10-08T07:39:14.265Z,28.61
2022-10-08T07:41:42.452Z,30.10
2022-10-08T07:44:12.662Z,31.59
2022-10-08T07:46:46.007Z,32.87
2022-10-08T07:49:14.709Z,34.03
2022-10-08T07:51:42.456Z,34.13
2022-10-08T07:54:16.587Z,35.38
2022-10-08T07:56:45.144Z,35.94
2022-10-08T07:59:15.165Z,36.77
2022-10-08T08:01:43.744Z,37.62
2022-10-08T08:04:12.394Z,37.35
2022-10-08T08:06:44.294Z,36.61
2022-10-08T08:09:12.278Z,37.48
2022-10-08T08:11:40.509Z,37.83
2022-10-08T08:14:08.431Z,38.37
2022-10-08T08:16:35.979Z,38.86
2022-10-08T08:19:04.193Z,39.07
2022-10-08T08:21:36.328Z,39.58
2022-10-08T08:24:11.641Z,38.96
2022-10-08T08:26:43.168Z,39.02
2022-10-08T08:29:18.406Z,39.38
2022-10-08T08:31:49.472Z,40.08
2022-10-08T08:34:25.040Z,40.38
2022-10-08T08:36:53.985Z,39.44
2022-10-08T08:39:27.893Z,40.43
2022-10-08T08:42:19.130Z,41.60
2022-10-08T08:45:18.881Z,41.42
2022-10-08T08:48:28.981Z,42.81
2022-10-08T08:50:59.523Z,43.26
2022-10-08T08:53:28.112Z,41.16
2022-10-08T08:56:00.178Z,37.46
2022-10-08T08:58:51.594Z,35.28
2022-10-08T09:01:43.697Z,32.27
2022-10-08T09:04:45.522Z,30.00
2022-10-08T09:07:23.203Z,28.17
2022-10-08T09:09:58.271Z,26.82
2022-10-08T09:12:41.751Z,25.92
2022-10-08T09:15:24.471Z,25.19
2022-10-08T09:17:53.263Z,25.03
2022-10-08T09:20:25.664Z,24.53
2022-10-08T09:22:54.973Z,24.35
2022-10-08T09:25:26.039Z,23.81
2022-10-08T09:27:58.008Z,23.58
2022-10-08T09:30:29.985Z,23.36
2022-10-08T09:33:03.313Z,23.06
2022-10-08T09:35:34.147Z,22.75
2022-10-08T09:38:05.824Z,22.51
2022-10-08T09:40:33.733Z,22.30
2022-10-08T09:43:17.898Z,22.33
2022-10-08T09:45:49.963Z,22.29
2022-10-08T09:48:28.828Z,22.04
2022-10-08T09:51:17.742Z,21.84
2022-10-08T09:53:54.469Z,21.85
2022-10-08T09:56:31.519Z,21.77
2022-10-08T09:59:05.975Z,21.84
2022-10-08T10:01:33.477Z,21.55
2022-10-08T10:04:03.641Z,21.36
2022-10-08T10:06:38.652Z,21.51
2022-10-08T10:09:11.586Z,21.59
2022-10-08T10:11:43.018Z,21.65
2022-10-08T10:14:50.045Z,21.69
2022-10-08T10:17:45.951Z,22.50
2022-10-08T10:20:42.088Z,22.62
2022-10-08T10:23:18.958Z,22.67
2022-10-08T10:26:11.580Z,22.76
2022-10-08T10:28:48.412Z,22.89
2022-10-08T10:31:42.118Z,23.15
2022-10-08T10:34:21.161Z,23.46
2022-10-08T10:36:56.575Z,23.66
2022-10-08T10:39:43.653Z,24.54
2022-10-08T10:42:14.732Z,24.98
2022-10-08T10:45:16.105Z,26.46
2022-10-08T10:47:43.502Z,25.90
2022-10-08T10:50:16.005Z,30.14
2022-10-08T10:53:11.465Z,31.68
2022-10-08T10:55:55.745Z,33.45
2022-10-08T10:59:21.311Z,33.94
2022-10-08T11:02:13.910Z,39.24
2022-10-08T11:05:00.743Z,39.47
2022-10-08T11:08:02.175Z,41.93
2022-10-08T11:10:53.559Z,37.32
2022-10-08T11:13:44.199Z,35.21
2022-10-08T11:16:23.893Z,32.29
2022-10-08T11:19:00.542Z,31.16
2022-10-08T11:22:20.715Z,29.94
2022-10-08T11:25:28.129Z,28.06
2022-10-08T11:28:28.328Z,27.98
2022-10-08T11:31:15.912Z,27.62
2022-10-08T11:33:46.016Z,27.27
2022-10-08T11:36:32.905Z,28.16
2022-10-08T11:39:21.711Z,32.60
2022-10-08T11:42:15.455Z,33.06
2022-10-08T11:44:43.096Z,35.45
2022-10-08T11:47:35.070Z,35.41
2022-10-08T11:50:05.891Z,36.31
2022-10-08T11:52:34.761Z,35.32
2022-10-08T11:55:02.418Z,36.75
2022-10-08T11:58:03.003Z,36.78
2022-10-08T12:00:46.791Z,34.52
2022-10-08T12:03:31.970Z,36.72
2022-10-08T12:06:39.221Z,39.14
2022-10-08T12:09:17.449Z,33.97
2022-10-08T12:11:50.645Z,32.05
2022-10-08T12:14:18.275Z,33.21
2022-10-08T12:16:48.807Z,36.34
2022-10-08T12:19:34.701Z,37.19
2022-10-08T12:22:12.610Z,35.69
2022-10-08T12:24:39.693Z,34.09
2022-10-08T12:27:23.376Z,37.16
2022-10-08T12:30:07.043Z,39.95
2022-10-08T12:32:43.531Z,39.45
2022-10-08T12:35:38.195Z,39.08
2022-10-08T12:38:33.447Z,39.27
2022-10-08T12:41:15.184Z,38.77
2022-10-08T12:44:18.168Z,39.92
2022-10-08T12:47:18.189Z,39.48
2022-10-08T12:50:38.736Z,39.42
2022-10-08T12:53:08.517Z,40.26
2022-10-08T12:55:49.993Z,40.92
2022-10-08T12:58:24.976Z,41.43
2022-10-08T13:00:58.958Z,40.22
2022-10-08T13:03:26.455Z,39.43
2022-10-08T13:05:57.819Z,39.66
2022-10-08T13:08:38.860Z,39.68
2022-10-08T13:11:11.977Z,39.91
2022-10-08T13:13:39.064Z,40.88
2022-10-08T13:16:47.217Z,40.38
2022-10-08T13:19:26.558Z,40.43
2022-10-08T13:21:57.816Z,39.61
2022-10-08T13:24:27.491Z,39.81
2022-10-08T13:26:56.153Z,40.33
2022-10-08T13:29:37.505Z,39.13
2022-10-08T13:32:14.009Z,38.39
2022-10-08T13:34:41.236Z,37.56
2022-10-08T13:37:25.597Z,38.13
2022-10-08T13:40:11.467Z,38.56
2022-10-08T13:42:55.359Z,38.46
2022-10-08T13:45:26.498Z,38.01
2022-10-08T13:47:55.127Z,38.73
2022-10-08T13:50:24.194Z,39.35
2022-10-08T13:52:59.306Z,39.01
2022-10-08T13:55:26.896Z,38.50
2022-10-08T13:58:01.949Z,38.62
2022-10-08T14:00:32.182Z,37.92
2022-10-08T14:02:59.883Z,38.48
2022-10-08T14:05:30.621Z,38.62
2022-10-08T14:08:07.409Z,38.48
2022-10-08T14:10:34.816Z,36.80
2022-10-08T14:13:02.280Z,36.57
2022-10-08T14:15:29.537Z,35.81
2022-10-08T14:17:56.726Z,35.43
2022-10-08T14:20:24.786Z,35.38
2022-10-08T14:22:52.367Z,34.83
2022-10-08T14:25:23.940Z,34.66
2022-10-08T14:27:51.904Z,33.81
2022-10-08T14:30:20.053Z,33.67
2022-10-08T14:32:47.381Z,33.03
2022-10-08T14:35:15.117Z,33.06
2022-10-08T14:37:42.348Z,32.12
2022-10-08T14:40:18.313Z,32.31
2022-10-08T14:42:46.617Z,32.43
2022-10-08T14:45:14.443Z,32.48
2022-10-08T14:47:42.322Z,31.74
2022-10-08T14:50:10.134Z,31.10
2022-10-08T14:52:43.258Z,30.69
2022-10-08T14:55:12.223Z,30.11
2022-10-08T14:57:39.501Z,29.17
2022-10-08T15:00:08.097Z,28.68
2022-10-08T15:02:35.828Z,27.64
2022-10-08T15:05:03.157Z,26.44
2022-10-08T15:07:30.916Z,25.56
2022-10-08T15:09:58.598Z,24.87
2022-10-08T15:12:25.817Z,24.10
2022-10-08T15:14:53.002Z,23.41
2022-10-08T15:17:20.469Z,22.92
2022-10-08T15:19:47.885Z,22.61
2022-10-08T15:22:15.101Z,22.27
2022-10-08T15:24:42.534Z,21.99
2022-10-08T15:27:09.777Z,22.00
2022-10-08T15:29:36.978Z,21.90
2022-10-08T15:32:04.497Z,21.81
2022-10-08T15:34:31.767Z,21.71
2022-10-08T15:36:59.059Z,21.60
2022-10-08T15:39:26.588Z,21.49
2022-10-08T15:41:55.376Z,21.37
2022-10-08T15:44:27.933Z,21.16
2022-10-08T15:47:08.264Z,21.03
2022-10-08T15:49:41.953Z,20.90
2022-10-08T15:52:14.353Z,20.68
2022-10-08T15:54:42.765Z,20.48
2022-10-08T15:57:13.437Z,20.34
2022-10-08T15:59:41.507Z,20.16
2022-10-08T16:02:16.662Z,20.10
2022-10-08T16:04:48.355Z,20.00
2022-10-08T16:07:17.178Z,19.75
2022-10-08T16:09:44.528Z,19.70
2022-10-08T16:12:11.933Z,19.65
2022-10-08T16:14:39.123Z,19.61
2022-10-08T16:17:06.542Z,19.55
2022-10-08T16:19:34.019Z,19.45
2022-10-08T16:22:01.381Z,19.20
2022-10-08T16:24:28.807Z,19.16
2022-10-08T16:26:56.235Z,19.04
2022-10-08T16:29:23.459Z,18.88
2022-10-08T16:31:50.873Z,18.83
2022-10-08T16:34:21.787Z,18.81
2022-10-08T16:36:50.116Z,18.73
2022-10-08T16:39:21.221Z,18.61
2022-10-08T16:41:49.456Z,18.44
2022-10-08T16:44:19.884Z,18.49
2022-10-08T16:46:52.445Z,18.38
2022-10-08T16:49:26.068Z,18.23
2022-10-08T16:52:04.743Z,18.14
2022-10-08T16:54:33.187Z,18.18
2022-10-08T16:57:00.831Z,18.08
2022-10-08T16:59:29.750Z,17.96
2022-10-08T17:01:59.831Z,17.92
2022-10-08T17:04:29.833Z,17.86
2022-10-08T17:06:57.370Z,17.79
2022-10-08T17:09:24.811Z,17.77
2022-10-08T17:11:52.633Z,17.59
2022-10-08T17:14:20.033Z,17.53
2022-10-08T17:16:50.095Z,17.48
2022-10-08T17:19:18.191Z,17.42
2022-10-08T17:21:45.948Z,17.45
2022-10-08T17:24:13.773Z,17.41
2022-10-08T17:26:42.106Z,17.36
2022-10-08T17:29:12.555Z,17.23
2022-10-08T17:31:40.258Z,17.19
2022-10-08T17:34:08.839Z,17.21
2022-10-08T17:36:39.446Z,17.15
2022-10-08T17:39:10.466Z,17.08
2022-10-08T17:41:40.314Z,17.10
2022-10-08T17:44:10.141Z,17.03
2022-10-08T17:46:43.727Z,16.94
2022-10-08T17:49:12.458Z,16.97
2022-10-08T17:51:39.857Z,16.96
2022-10-08T17:54:12.314Z,16.98
2022-10-08T17:56:40.908Z,16.96
2022-10-08T17:59:12.989Z,16.92
2022-10-08T18:01:44.807Z,16.88
2022-10-08T18:04:16.364Z,16.83
2022-10-08T18:06:48.821Z,16.88
2022-10-08T18:09:21.396Z,16.84
2022-10-08T18:11:53.342Z,16.81
2022-10-08T18:14:22.454Z,16.86
2022-10-08T18:16:50.836Z,16.89
2022-10-08T18:19:19.197Z,16.93
2022-10-08T18:21:46.759Z,16.99
2022-10-08T18:24:15.810Z,16.98
2022-10-08T18:26:43.778Z,16.92
2022-10-08T18:29:13.856Z,16.84
2022-10-08T18:31:43.801Z,16.83
2022-10-08T18:34:17.705Z,16.79
2022-10-08T18:36:46.538Z,16.74
2022-10-08T18:39:21.546Z,16.65
2022-10-08T18:41:53.449Z,16.67
2022-10-08T18:44:24.544Z,16.65
2022-10-08T18:46:52.619Z,16.63
2022-10-08T18:49:30.908Z,16.64
2022-10-08T18:51:59.069Z,16.62
2022-10-08T18:54:26.651Z,16.60
2022-10-08T18:56:55.434Z,16.53
2022-10-08T18:59:23.545Z,16.55
2022-10-08T19:01:51.298Z,16.63
2022-10-08T19:04:22.302Z,16.57
2022-10-08T19:06:53.513Z,16.62
2022-10-08T19:09:21.558Z,16.60
2022-10-08T19:11:52.287Z,16.63
2022-10-08T19:14:22.652Z,16.60
2022-10-08T19:16:51.319Z,16.60
2022-10-08T19:19:22.222Z,16.60
2022-10-08T19:21:50.546Z,16.56
2022-10-08T19:24:22.466Z,16.53
2022-10-08T19:26:50.947Z,16.53
2022-10-08T19:29:25.166Z,16.47
2022-10-08T19:31:52.753Z,16.47
2022-10-08T19:34:24.891Z,16.46
2022-10-08T19:36:52.866Z,16.44
2022-10-08T19:39:25.091Z,16.50
2022-10-08T19:41:52.684Z,16.51
2022-10-08T19:44:21.216Z,16.48
2022-10-08T19:46:49.279Z,16.49
2022-10-08T19:49:18.437Z,16.39
2022-10-08T19:51:45.852Z,16.37
2022-10-08T19:54:13.499Z,16.45
2022-10-08T19:56:41.501Z,16.49
2022-10-08T19:59:11.687Z,16.37
2022-10-08T20:01:41.065Z,16.29
2022-10-08T20:04:09.751Z,16.26
2022-10-08T20:06:41.255Z,16.28
2022-10-08T20:09:12.943Z,16.29
2022-10-08T20:11:43.589Z,16.26
2022-10-08T20:14:13.189Z,16.27
2022-10-08T20:16:43.025Z,16.26
2022-10-08T20:19:20.764Z,16.23
2022-10-08T20:21:50.499Z,16.21
2022-10-08T20:24:19.024Z,16.15
2022-10-08T20:26:49.027Z,16.16
2022-10-08T20:29:24.329Z,16.15
2022-10-08T20:31:55.528Z,16.12
2022-10-08T20:34:31.254Z,16.15
2022-10-08T20:37:01.643Z,16.14
2022-10-08T20:39:30.199Z,16.15
2022-10-08T20:41:58.496Z,16.09
2022-10-08T20:44:26.002Z,16.08
2022-10-08T20:46:53.397Z,16.09
2022-10-08T20:49:20.770Z,16.06
2022-10-08T20:51:48.910Z,15.98
2022-10-08T20:54:17.487Z,16.03
2022-10-08T20:56:45.250Z,16.01
2022-10-08T20:59:17.776Z,16.01
2022-10-08T21:01:46.429Z,16.05
2022-10-08T21:04:13.899Z,16.04
2022-10-08T21:06:45.554Z,15.95
2022-10-08T21:09:14.732Z,15.95
2022-10-08T21:11:42.884Z,15.91
2022-10-08T21:14:11.408Z,15.90
2022-10-08T21:16:40.244Z,15.97
2022-10-08T21:19:16.049Z,15.95
2022-10-08T21:21:43.260Z,15.91
2022-10-08T21:24:11.768Z,15.92
2022-10-08T21:26:41.619Z,15.92
2022-10-08T21:29:12.453Z,15.86
2022-10-08T21:31:42.261Z,15.84
2022-10-08T21:34:12.538Z,15.81
2022-10-08T21:36:41.513Z,15.80
2022-10-08T21:39:15.969Z,15.80
2022-10-08T21:41:43.793Z,15.81
2022-10-08T21:44:11.333Z,15.81
2022-10-08T21:46:42.272Z,15.82
2022-10-08T21:49:22.278Z,15.83
2022-10-08T21:51:49.768Z,15.87
2022-10-08T21:54:17.557Z,15.82
2022-10-08T21:56:45.358Z,15.78
2022-10-08T21:59:15.759Z,15.79
2022-10-08T22:01:49.732Z,15.72
2022-10-08T22:04:21.895Z,15.78
2022-10-08T22:06:53.134Z,15.70
2022-10-08T22:09:25.377Z,15.63
2022-10-08T22:11:53.832Z,15.58
2022-10-08T22:14:21.881Z,15.58
2022-10-08T22:16:49.909Z,15.57
2022-10-08T22:19:18.079Z,15.56
2022-10-08T22:21:45.821Z,15.56
2022-10-08T22:24:13.642Z,15.58
2022-10-08T22:26:45.308Z,15.58
2022-10-08T22:29:13.287Z,15.48
2022-10-08T22:31:41.109Z,15.46
2022-10-08T22:34:08.913Z,15.40
2022-10-08T22:36:41.696Z,15.38
2022-10-08T22:39:10.230Z,15.36
2022-10-08T22:41:38.139Z,15.31
2022-10-08T22:44:05.462Z,15.34
2022-10-08T22:46:39.489Z,15.38
2022-10-08T22:49:10.650Z,15.34
2022-10-08T22:51:39.596Z,15.34
2022-10-08T22:54:07.300Z,15.32
2022-10-08T22:56:34.671Z,15.31
2022-10-08T22:59:02.413Z,15.28
2022-10-08T23:01:30.814Z,15.18
2022-10-08T23:03:58.948Z,15.16
2022-10-08T23:06:34.856Z,15.04
2022-10-08T23:09:07.219Z,15.01
2022-10-08T23:11:35.470Z,15.01
2022-10-08T23:14:03.119Z,14.95
2022-10-08T23:16:33.502Z,14.96
2022-10-08T23:19:07.753Z,14.90
2022-10-08T23:21:36.576Z,14.94
2022-10-08T23:24:05.702Z,14.94
2022-10-08T23:26:33.551Z,14.90
2022-10-08T23:29:01.552Z,14.82
2022-10-08T23:31:36.323Z,14.74
2022-10-08T23:34:05.891Z,14.67
2022-10-08T23:36:37.818Z,14.63
2022-10-08T23:39:07.130Z,14.64
2022-10-08T23:41:35.891Z,14.65
2022-10-08T23:44:03.559Z,14.68
2022-10-08T23:46:31.748Z,14.66
2022-10-08T23:49:00.022Z,14.65
2022-10-08T23:51:29.152Z,14.59
2022-10-08T23:53:56.467Z,14.64
2022-10-08T23:56:23.989Z,14.62
2022-10-08T23:58:51.544Z,14.53
